ワルシャワ の空港の天気 - METARとTAF

ワルシャワ・フレデリック・ショパン空港 ( EPWA / WAW ) - ポーランド ワルシャワ
飛行場実況気象(Metar)
観測時間05/28 22:00 CEST (05/28 20:00 UTC)
風向・風速南 2m/s
視程10km以上
天気現象
なし
気温19℃
湿度60%
気圧1019hPa
METAREPWA 282000Z 18003KT CAVOK 19/11 Q1019 NOSIG
過去の天気等 Google飛行場航空写真 Wunderground天気予報

過去48時間のMETAR

飛行場予報(TAF)
発表時間: 5/28 19:30 CEST (5/28 17:30 UTC)
予報対象時間: 28日20時 CEST ~ 29日20時 CEST
風向・風速南南西 4m/s
視程10km以上
なし
29日11時 CEST ~ 29日20時 CEST に一時的に
全天の4割程度の塔状積雲 雲底高度 1,520m
29日17時 CEST ~ 29日20時 CEST に 確率 30% で一時的に
視程5,000m
天気現象雷雨
全天の8割程度の積乱雲 雲底高度 610m
TAF EPWA 281730Z 2818/2918 20008KT CAVOK
TEMPO 2909/2918 SCT050TCU
PROB30 TEMPO 2915/2918 5000 TSRA BKN020CB